Wetterdaten: Woche 24.11.08 - 30.11.08 (KW48)
Datum Zeit Temp. A. Feuchte A. Luftdruck Regen Wind Richtung Taupunkt Windchill Windben
24.11.2008 00:00 -4,3 C 78 % 997,6 hPa 0,0 l/m 0,0 km/h (0 Bft) N -7,6 C -4,3 C 0,4 km/h (0 Bft)
24.11.2008 01:00 -5,0 C 81 % 995,8 hPa 0,0 l/m 0,1 km/h (0 Bft) N -7,8 C -5,0 C 1,6 km/h (1 Bft)
24.11.2008 02:00 -5,1 C 82 % 994,6 hPa 0,0 l/m 0,0 km/h (0 Bft) N -7,6 C -5,1 C 0,8 km/h (0 Bft)
24.11.2008 03:00 -5,4 C 84 % 993,7 hPa 0,0 l/m 0,0 km/h (0 Bft) N -7,7 C -5,4 C 1,2 km/h (1 Bft)
24.11.2008 04:00 -5,4 C 85 % 993,4 hPa 0,0 l/m 0,1 km/h (0 Bft) N -7,6 C -5,4 C 2,0 km/h (1 Bft)
24.11.2008 05:00 -4,9 C 84 % 993,6 hPa 0,0 l/m 0,9 km/h (0 Bft) W -7,3 C -4,9 C 5,6 km/h (1 Bft)
24.11.2008 06:00 -4,1 C 82 % 993,9 hPa 0,0 l/m 0,2 km/h (0 Bft) N -6,8 C -4,1 C 2,8 km/h (1 Bft)
24.11.2008 07:00 -3,3 C 80 % 994,3 hPa 0,0 l/m 0,4 km/h (0 Bft) N -6,3 C -3,3 C 4,0 km/h (1 Bft)
24.11.2008 08:00 -2,3 C 77 % 994,9 hPa 0,0 l/m 0,4 km/h (0 Bft) N -5,8 C -2,3 C 2,8 km/h (1 Bft)
24.11.2008 09:00 -1,3 C 76 % 995,4 hPa 0,0 l/m 0,8 km/h (0 Bft) W -5,1 C -1,3 C 3,2 km/h (1 Bft)
24.11.2008 10:00 0,8 C 67 % 995,8 hPa 0,0 l/m 0,9 km/h (0 Bft) N -4,6 C 0,8 C 4,8 km/h (1 Bft)
24.11.2008 11:00 2,1 C 65 % 995,8 hPa 0,0 l/m 0,6 km/h (0 Bft) NW -3,9 C 2,1 C 3,2 km/h (1 Bft)
24.11.2008 12:00 2,7 C 61 % 996,1 hPa 0,0 l/m 1,3 km/h (1 Bft) N-NO -4,1 C 2,7 C 5,2 km/h (1 Bft)
24.11.2008 13:00 3,1 C 62 % 996,7 hPa 0,3 l/m 0,2 km/h (0 Bft) N -3,5 C 3,1 C 2,8 km/h (1 Bft)
24.11.2008 14:00 3,6 C 63 % 997,3 hPa 0,0 l/m 0,0 km/h (0 Bft) N -2,7 C 3,6 C 1,2 km/h (1 Bft)
24.11.2008 15:00 3,2 C 67 % 997,2 hPa 0,0 l/m 0,3 km/h (0 Bft) N -2,4 C 3,2 C 2,4 km/h (1 Bft)
24.11.2008 16:00 2,4 C 74 % 997,3 hPa 0,0 l/m 0,0 km/h (0 Bft) N -1,8 C 2,4 C 1,6 km/h (1 Bft)
24.11.2008 17:00 1,8 C 78 % 998,0 hPa 0,0 l/m 0,0 km/h (0 Bft) N -1,7 C 1,8 C 1,2 km/h (1 Bft)
24.11.2008 18:00 2,0 C 79 % 999,1 hPa 0,0 l/m 0,3 km/h (0 Bft) N -1,3 C 2,0 C 3,2 km/h (1 Bft)
24.11.2008 19:00 1,7 C 82 % 999,6 hPa 0,0 l/m 0,1 km/h (0 Bft) N -1,0 C 1,7 C 2,4 km/h (1 Bft)
24.11.2008 20:00 1,0 C 84 % 999,9 hPa 0,0 l/m 0,0 km/h (0 Bft) N -1,4 C 1,0 C 0,4 km/h (0 Bft)
24.11.2008 21:00 0,6 C 87 % 1000,1 hPa 0,3 l/m 0,0 km/h (0 Bft) N -1,3 C 0,6 C 0,8 km/h (0 Bft)
24.11.2008 22:00 0,4 C 89 % 1000,3 hPa 0,3 l/m 0,0 km/h (0 Bft) N -1,2 C 0,4 C 0,0 km/h (0 Bft)
24.11.2008 23:00 0,4 C 90 % 1000,6 hPa 0,0 l/m 0,0 km/h (0 Bft) N -1,1 C 0,4 C 0,8 km/h (0 Bft)
25.11.2008 00:00 0,4 C 90 % 1001,1 hPa 0,0 l/m 0,3 km/h (0 Bft) N -1,0 C 0,4 C 2,8 km/h (1 Bft)
25.11.2008 01:00 0,3 C 91 % 1001,2 hPa 0,0 l/m 0,3 km/h (0 Bft) N -1,0 C 0,3 C 3,2 km/h (1 Bft)
25.11.2008 02:00 0,1 C 91 % 1001,6 hPa 0,0 l/m 0,2 km/h (0 Bft) N -1,2 C 0,1 C 2,4 km/h (1 Bft)
25.11.2008 03:00 -0,2 C 91 % 1002,0 hPa 0,0 l/m 0,4 km/h (0 Bft) N -1,4 C -0,2 C 2,8 km/h (1 Bft)
25.11.2008 04:00 -0,3 C 92 % 1002,8 hPa 0,0 l/m 0,5 km/h (0 Bft) N -1,5 C -0,3 C 3,2 km/h (1 Bft)
25.11.2008 05:00 -0,4 C 92 % 1003,3 hPa 0,0 l/m 0,2 km/h (0 Bft) N -1,5 C -0,4 C 3,6 km/h (1 Bft)
25.11.2008 06:00 -0,3 C 92 % 1003,7 hPa 0,0 l/m 0,0 km/h (0 Bft) N -1,4 C -0,3 C 2,0 km/h (1 Bft)
25.11.2008 07:00 -0,5 C 92 % 1004,4 hPa 0,0 l/m 0,0 km/h (0 Bft) N -1,6 C -0,5 C 1,6 km/h (1 Bft)
25.11.2008 08:00 -0,6 C 93 % 1005,5 hPa 0,0 l/m 0,0 km/h (0 Bft) N -1,6 C -0,6 C 2,4 km/h (1 Bft)
25.11.2008 09:00 -0,2 C 93 % 1006,3 hPa 0,0 l/m 0,8 km/h (0 Bft) N -1,2 C -0,2 C 4,0 km/h (1 Bft)
25.11.2008 10:00 0,3 C 93 % 1007,1 hPa 1,2 l/m 0,0 km/h (0 Bft) SW -0,7 C 0,3 C 5,6 km/h (1 Bft)
25.11.2008 11:00 0,3 C 94 % 1007,7 hPa 0,3 l/m 0,8 km/h (0 Bft) N -0,6 C 0,3 C 5,6 km/h (1 Bft)
25.11.2008 12:00 2,5 C 93 % 1007,7 hPa 0,0 l/m 4,0 km/h (1 Bft) W 1,4 C 1,7 C 13,6 km/h (3 Bft)
25.11.2008 13:00 4,5 C 74 % 1008,3 hPa 0,0 l/m 9,0 km/h (2 Bft) W 0,3 C 2,3 C 19,3 km/h (3 Bft)
25.11.2008 14:00 4,6 C 70 % 1008,3 hPa 0,0 l/m 6,7 km/h (2 Bft) W-NW -0,5 C 4,3 C 20,1 km/h (4 Bft)
25.11.2008 15:00 4,4 C 70 % 1009,1 hPa 0,3 l/m 6,3 km/h (2 Bft) SW -0,7 C 4,1 C 16,1 km/h (3 Bft)
25.11.2008 16:00 3,8 C 72 % 1010,3 hPa 0,0 l/m 7,3 km/h (2 Bft) W-NW -0,8 C 2,9 C 20,5 km/h (4 Bft)
25.11.2008 17:00 3,9 C 67 % 1011,1 hPa 0,0 l/m 9,9 km/h (2 Bft) NW -1,8 C 0,9 C 23,7 km/h (4 Bft)
25.11.2008 18:00 3,5 C 72 % 1012,1 hPa 0,0 l/m 9,7 km/h (2 Bft) W -1,2 C 0,6 C 22,9 km/h (4 Bft)
25.11.2008 19:00 2,9 C 72 % 1013,4 hPa 0,0 l/m 7,7 km/h (2 Bft) W -1,6 C 1,7 C 24,1 km/h (4 Bft)
25.11.2008 20:00 2,6 C 69 % 1014,4 hPa 0,0 l/m 7,3 km/h (2 Bft) W-NW -2,5 C 1,7 C 20,5 km/h (4 Bft)
25.11.2008 21:00 2,2 C 71 % 1015,5 hPa 0,0 l/m 7,4 km/h (2 Bft) N-NO -2,5 C 1,3 C 19,3 km/h (3 Bft)
25.11.2008 22:00 2,0 C 72 % 1016,6 hPa 0,0 l/m 6,2 km/h (2 Bft) NW -2,4 C 1,9 C 15,3 km/h (3 Bft)
25.11.2008 23:00 1,7 C 75 % 1017,2 hPa 0,0 l/m 7,6 km/h (2 Bft) W-SW -2,3 C 0,6 C 18,5 km/h (3 Bft)
26.11.2008 00:00 1,8 C 74 % 1017,8 hPa 0,0 l/m 7,6 km/h (2 Bft) NW -2,3 C 0,7 C 18,9 km/h (3 Bft)
26.11.2008 01:00 1,7 C 74 % 1018,2 hPa 0,0 l/m 8,1 km/h (2 Bft) W-NW -2,5 C 0,0 C 21,3 km/h (4 Bft)
26.11.2008 02:00 1,3 C 76 % 1018,9 hPa 0,0 l/m 6,7 km/h (2 Bft) W-SW -2,5 C 0,9 C 16,5 km/h (3 Bft)
26.11.2008 03:00 1,3 C 77 % 1019,3 hPa 0,0 l/m 7,1 km/h (2 Bft) W-NW -2,3 C 0,4 C 18,9 km/h (3 Bft)
26.11.2008 04:00 1,3 C 76 % 1020,1 hPa 0,0 l/m 6,7 km/h (2 Bft) NW -2,4 C 1,0 C 18,1 km/h (3 Bft)
26.11.2008 05:00 1,3 C 78 % 1020,8 hPa 0,0 l/m 6,1 km/h (2 Bft) W-SW -2,2 C 1,1 C 18,5 km/h (3 Bft)
26.11.2008 06:00 1,2 C 78 % 1021,3 hPa 0,0 l/m 5,8 km/h (2 Bft) SW -2,3 C 1,2 C 16,1 km/h (3 Bft)
26.11.2008 07:00 1,3 C 77 % 1022,2 hPa 0,0 l/m 6,3 km/h (2 Bft) W-NW -2,4 C 1,3 C 19,3 km/h (3 Bft)
26.11.2008 08:00 1,3 C 76 % 1023,1 hPa 0,0 l/m 6,4 km/h (2 Bft) W-NW -2,5 C 1,3 C 18,5 km/h (3 Bft)
26.11.2008 09:00 1,9 C 74 % 1023,8 hPa 0,0 l/m 6,4 km/h (2 Bft) W -2,3 C 1,1 C 22,5 km/h (4 Bft)
26.11.2008 10:00 2,3 C 73 % 1024,3 hPa 0,0 l/m 9,7 km/h (2 Bft) W-NW -2,1 C -0,7 C 25,8 km/h (4 Bft)
26.11.2008 11:00 2,9 C 69 % 1024,1 hPa 0,0 l/m 8,0 km/h (2 Bft) W-NW -2,2 C 1,4 C 20,9 km/h (4 Bft)
26.11.2008 12:00 3,8 C 60 % 1023,9 hPa 0,0 l/m 9,7 km/h (2 Bft) W-NW -3,2 C 1,0 C 25,7 km/h (4 Bft)
26.11.2008 13:00 3,7 C 62 % 1023,8 hPa 0,0 l/m 11,3 km/h (2 Bft) W -2,9 C -0,3 C 24,1 km/h (4 Bft)
26.11.2008 14:00 3,7 C 64 % 1024,1 hPa 0,0 l/m 10,5 km/h (2 Bft) W -2,6 C 0,2 C 27,4 km/h (4 Bft)
26.11.2008 15:00 2,7 C 69 % 1024,8 hPa 0,0 l/m 8,1 km/h (2 Bft) W -2,6 C 1,2 C 26,5 km/h (4 Bft)
26.11.2008 16:00 2,4 C 69 % 1025,1 hPa 0,0 l/m 7,2 km/h (2 Bft) W -2,8 C 1,7 C 19,3 km/h (3 Bft)
26.11.2008 17:00 2,3 C 71 % 1025,4 hPa 0,0 l/m 5,6 km/h (1 Bft) W-NW -2,5 C 2,4 C 15,3 km/h (3 Bft)
26.11.2008 18:00 2,4 C 69 % 1025,4 hPa 0,0 l/m 7,3 km/h (2 Bft) W -2,8 C 0,9 C 23,4 km/h (4 Bft)
26.11.2008 19:00 2,2 C 68 % 1025,7 hPa 0,0 l/m 10,5 km/h (2 Bft) W -3,1 C -1,4 C 26,5 km/h (4 Bft)
26.11.2008 20:00 2,2 C 68 % 1025,8 hPa 0,0 l/m 8,9 km/h (2 Bft) W -3,1 C -0,1 C 23,3 km/h (4 Bft)
26.11.2008 21:00 2,2 C 67 % 1025,6 hPa 0,0 l/m 6,4 km/h (2 Bft) W -3,3 C 2,2 C 17,7 km/h (3 Bft)
26.11.2008 22:00 2,6 C 66 % 1025,5 hPa 0,0 l/m 7,2 km/h (2 Bft) W -3,1 C 1,8 C 24,9 km/h (4 Bft)
26.11.2008 23:00 3,2 C 62 % 1025,4 hPa 0,0 l/m 9,7 km/h (2 Bft) W-NW -3,4 C 0,3 C 25,8 km/h (4 Bft)
27.11.2008 00:00 3,4 C 60 % 1025,6 hPa 0,0 l/m 9,6 km/h (2 Bft) W -3,6 C 0,7 C 25,0 km/h (4 Bft)
27.11.2008 01:00 3,5 C 60 % 1025,4 hPa 0,0 l/m 6,4 km/h (2 Bft) W -3,6 C 3,5 C 24,1 km/h (4 Bft)
27.11.2008 02:00 3,5 C 60 % 1025,1 hPa 0,0 l/m 8,0 km/h (2 Bft) W -3,6 C 2,0 C 24,1 km/h (4 Bft)
27.11.2008 03:00 3,7 C 59 % 1025,0 hPa 0,0 l/m 6,4 km/h (2 Bft) W-SW -3,7 C 3,7 C 22,5 km/h (4 Bft)
27.11.2008 04:00 3,8 C 58 % 1024,6 hPa 0,0 l/m 8,0 km/h (2 Bft) SW -3,8 C 2,4 C 26,5 km/h (4 Bft)
27.11.2008 05:00 3,9 C 57 % 1024,8 hPa 0,0 l/m 4,0 km/h (1 Bft) S -3,8 C 3,9 C 14,5 km/h (3 Bft)
27.11.2008 06:00 4,0 C 58 % 1024,9 hPa 0,0 l/m 3,2 km/h (1 Bft) W-SW -3,6 C 4,0 C 15,3 km/h (3 Bft)
27.11.2008 07:00 4,2 C 59 % 1025,0 hPa 0,0 l/m 4,8 km/h (1 Bft) W -3,2 C 4,2 C 16,1 km/h (3 Bft)
27.11.2008 08:00 4,5 C 58 % 1025,3 hPa 0,0 l/m 3,6 km/h (1 Bft) W-SW -3,2 C 4,5 C 12,9 km/h (3 Bft)
27.11.2008 09:00 5,1 C 57 % 1025,3 hPa 0,0 l/m 3,4 km/h (1 Bft) W-SW -2,7 C 5,1 C 10,9 km/h (2 Bft)
27.11.2008 10:00 6,3 C 55 % 1025,1 hPa 0,0 l/m 1,0 km/h (0 Bft) S-SW -2,0 C 6,3 C 5,6 km/h (1 Bft)
27.11.2008 11:00 6,9 C 56 % 1024,5 hPa 0,0 l/m 1,7 km/h (1 Bft) S -1,3 C 6,9 C 6,4 km/h (2 Bft)
27.11.2008 12:00 7,4 C 58 % 1023,8 hPa 0,0 l/m 1,5 km/h (1 Bft) S-SO -0,4 C 7,4 C 7,2 km/h (2 Bft)
27.11.2008 13:00 7,1 C 59 % 1023,3 hPa 0,0 l/m 1,4 km/h (1 Bft) O -0,5 C 7,1 C 6,8 km/h (2 Bft)
27.11.2008 14:00 7,4 C 57 % 1022,9 hPa 0,0 l/m 1,5 km/h (1 Bft) O -0,7 C 7,4 C 6,4 km/h (2 Bft)
27.11.2008 15:00 6,4 C 60 % 1022,5 hPa 0,0 l/m 2,5 km/h (1 Bft) O -0,9 C 6,4 C 7,6 km/h (2 Bft)
27.11.2008 16:00 5,0 C 67 % 1022,4 hPa 0,0 l/m 0,3 km/h (0 Bft) N -0,7 C 5,0 C 2,0 km/h (1 Bft)
27.11.2008 17:00 2,8 C 73 % 1022,2 hPa 0,0 l/m 0,0 km/h (0 Bft) N -1,5 C 2,8 C 1,2 km/h (1 Bft)
27.11.2008 18:00 2,0 C 76 % 1021,8 hPa 0,0 l/m 0,1 km/h (0 Bft) N -1,8 C 2,0 C 2,8 km/h (1 Bft)
27.11.2008 19:00 1,9 C 75 % 1021,6 hPa 0,0 l/m 0,6 km/h (0 Bft) O -2,1 C 1,9 C 4,8 km/h (1 Bft)
27.11.2008 20:00 1,5 C 74 % 1021,1 hPa 0,0 l/m 0,3 km/h (0 Bft) N -2,6 C 1,5 C 4,0 km/h (1 Bft)
27.11.2008 21:00 1,0 C 74 % 1020,9 hPa 0,0 l/m 0,5 km/h (0 Bft) S -3,1 C 1,0 C 4,0 km/h (1 Bft)
27.11.2008 22:00 0,3 C 76 % 1020,3 hPa 0,0 l/m 0,9 km/h (0 Bft) S-SO -3,5 C 0,3 C 6,0 km/h (2 Bft)
27.11.2008 23:00 0,4 C 74 % 1020,0 hPa 0,0 l/m 1,5 km/h (1 Bft) S -3,7 C 0,4 C 7,2 km/h (2 Bft)
28.11.2008 00:00 0,5 C 71 % 1019,7 hPa 0,0 l/m 1,9 km/h (1 Bft) S-SO -4,1 C 0,5 C 11,3 km/h (2 Bft)
28.11.2008 01:00 -0,2 C 73 % 1019,1 hPa 0,0 l/m 0,5 km/h (0 Bft) N -4,4 C -0,2 C 5,6 km/h (1 Bft)
28.11.2008 02:00 -0,8 C 75 % 1018,8 hPa 0,0 l/m 1,3 km/h (1 Bft) SO -4,6 C -0,8 C 6,8 km/h (2 Bft)
28.11.2008 03:00 -1,1 C 77 % 1018,6 hPa 0,0 l/m 1,8 km/h (1 Bft) O-SO -4,7 C -1,1 C 6,4 km/h (2 Bft)
28.11.2008 04:00 -1,7 C 79 % 1018,2 hPa 0,0 l/m 0,9 km/h (0 Bft) O-SO -4,8 C -1,7 C 4,8 km/h (1 Bft)
28.11.2008 05:00 -2,0 C 81 % 1018,1 hPa 0,0 l/m 0,9 km/h (0 Bft) O-SO -4,8 C -2,0 C 5,2 km/h (1 Bft)
28.11.2008 06:00 -2,1 C 82 % 1017,7 hPa 0,0 l/m 3,9 km/h (1 Bft) O -4,8 C -2,1 C 12,1 km/h (2 Bft)
28.11.2008 07:00 -2,2 C 82 % 1017,4 hPa 0,0 l/m 2,8 km/h (1 Bft) O-SO -4,8 C -2,2 C 5,9 km/h (2 Bft)
28.11.2008 08:00 -2,2 C 83 % 1017,7 hPa 0,0 l/m 0,3 km/h (0 Bft) S-SO -4,7 C -2,2 C 3,2 km/h (1 Bft)
28.11.2008 09:00 -1,4 C 82 % 1017,5 hPa 0,0 l/m 2,6 km/h (1 Bft) SO -4,1 C -1,4 C 3,2 km/h (1 Bft)
28.11.2008 10:00 -0,1 C 77 % 1017,1 hPa 0,0 l/m 5,8 km/h (2 Bft) O -3,7 C -0,8 C 13,7 km/h (3 Bft)
28.11.2008 11:00 1,3 C 74 % 1016,0 hPa 0,0 l/m 5,7 km/h (1 Bft) O-SO -3,0 C 0,5 C 16,1 km/h (3 Bft)
28.11.2008 12:00 2,0 C 68 % 1015,6 hPa 0,0 l/m 4,5 km/h (1 Bft) S-SO -3,3 C 2,0 C 16,1 km/h (3 Bft)
28.11.2008 13:00 1,4 C 70 % 1014,5 hPa 0,0 l/m 4,8 km/h (1 Bft) O-SO -3,5 C 1,4 C 17,7 km/h (3 Bft)
28.11.2008 14:00 1,3 C 71 % 1013,7 hPa 0,0 l/m 5,0 km/h (1 Bft) O -3,4 C 1,3 C 14,9 km/h (3 Bft)
28.11.2008 15:00 1,6 C 71 % 1013,1 hPa 0,0 l/m 4,2 km/h (1 Bft) O -3,1 C 1,6 C 12,9 km/h (3 Bft)
28.11.2008 16:00 1,2 C 74 % 1012,5 hPa 0,0 l/m 4,0 km/h (1 Bft) O-SO -2,9 C 1,1 C 12,1 km/h (2 Bft)
28.11.2008 17:00 0,8 C 75 % 1011,8 hPa 0,0 l/m 2,7 km/h (1 Bft) O -3,1 C 0,8 C 11,3 km/h (2 Bft)
28.11.2008 18:00 0,3 C 78 % 1011,5 hPa 0,0 l/m 4,9 km/h (1 Bft) O -3,2 C 0,3 C 12,5 km/h (3 Bft)
28.11.2008 19:00 -0,0 C 80 % 1011,4 hPa 0,0 l/m 3,2 km/h (1 Bft) O-SO -3,0 C -0,0 C 11,3 km/h (2 Bft)
28.11.2008 20:00 0,1 C 81 % 1010,0 hPa 0,0 l/m 4,6 km/h (1 Bft) SO -2,7 C 0,1 C 14,1 km/h (3 Bft)
28.11.2008 21:00 0,0 C 82 % 1009,3 hPa 0,0 l/m 5,3 km/h (1 Bft) O -2,7 C -0,1 C 11,7 km/h (2 Bft)
28.11.2008 22:00 -0,2 C 85 % 1007,8 hPa 0,0 l/m 5,1 km/h (1 Bft) O-SO -2,4 C -0,2 C 12,1 km/h (2 Bft)
28.11.2008 23:00 -0,1 C 85 % 1006,7 hPa 0,0 l/m 4,3 km/h (1 Bft) SO -2,3 C -0,1 C 11,3 km/h (2 Bft)
29.11.2008 00:00 0,2 C 85 % 1005,2 hPa 0,0 l/m 3,1 km/h (1 Bft) SO -2,1 C 0,2 C 10,9 km/h (2 Bft)
29.11.2008 01:00 0,2 C 86 % 1003,4 hPa 0,0 l/m 4,3 km/h (1 Bft) SO -1,8 C 0,2 C 15,3 km/h (3 Bft)
29.11.2008 02:00 0,2 C 87 % 1002,6 hPa 0,0 l/m 2,9 km/h (1 Bft) O -1,7 C 0,2 C 10,1 km/h (2 Bft)
29.11.2008 03:00 0,3 C 88 % 1002,0 hPa 0,0 l/m 3,0 km/h (1 Bft) S-SO -1,5 C 0,3 C 8,9 km/h (2 Bft)
29.11.2008 04:00 0,6 C 87 % 1001,5 hPa 0,0 l/m 3,4 km/h (1 Bft) SO -1,3 C 0,6 C 10,1 km/h (2 Bft)
29.11.2008 05:00 0,5 C 88 % 1001,0 hPa 0,0 l/m 6,3 km/h (2 Bft) O-SO -1,3 C 0,4 C 15,3 km/h (3 Bft)
29.11.2008 06:00 0,6 C 89 % 1000,4 hPa 0,0 l/m 5,7 km/h (1 Bft) O-NO -1,0 C 0,5 C 17,3 km/h (3 Bft)
29.11.2008 07:00 0,8 C 89 % 1000,5 hPa 0,0 l/m 3,4 km/h (1 Bft) NO -0,8 C 0,8 C 12,5 km/h (3 Bft)
29.11.2008 08:00 0,9 C 89 % 1000,3 hPa 0,0 l/m 4,3 km/h (1 Bft) SO -0,6 C 0,9 C 12,5 km/h (3 Bft)
29.11.2008 09:00 1,2 C 90 % 1000,6 hPa 0,0 l/m 2,2 km/h (1 Bft) SO -0,3 C 1,2 C 8,4 km/h (2 Bft)
29.11.2008 10:00 1,3 C 91 % 1000,9 hPa 0,0 l/m 2,1 km/h (1 Bft) S 0,0 C 1,3 C 8,9 km/h (2 Bft)
29.11.2008 11:00 1,9 C 90 % 1000,2 hPa 0,0 l/m 1,4 km/h (1 Bft) O 0,4 C 1,9 C 7,3 km/h (2 Bft)
29.11.2008 12:00 2,1 C 90 % 1000,3 hPa 0,0 l/m 2,7 km/h (1 Bft) O 0,6 C 2,1 C 7,2 km/h (2 Bft)
29.11.2008 13:00 2,3 C 90 % 1000,4 hPa 0,0 l/m 0,9 km/h (0 Bft) SO 0,7 C 2,3 C 4,8 km/h (1 Bft)
29.11.2008 14:00 2,5 C 89 % 1000,4 hPa 0,0 l/m 0,8 km/h (0 Bft) N 0,8 C 2,5 C 5,6 km/h (1 Bft)
29.11.2008 15:00 2,5 C 88 % 1000,6 hPa 0,0 l/m 1,1 km/h (1 Bft) O 0,7 C 2,5 C 5,6 km/h (1 Bft)
29.11.2008 16:00 2,1 C 87 % 1001,0 hPa 0,0 l/m 1,4 km/h (1 Bft) O 0,2 C 2,1 C 6,0 km/h (2 Bft)
29.11.2008 17:00 1,9 C 88 % 1001,4 hPa 0,0 l/m 1,7 km/h (1 Bft) O-SO 0,2 C 1,9 C 5,6 km/h (1 Bft)
29.11.2008 18:00 1,8 C 88 % 1001,6 hPa 0,0 l/m 1,0 km/h (0 Bft) S 0,0 C 1,8 C 5,6 km/h (1 Bft)
29.11.2008 19:00 1,8 C 87 % 1002,0 hPa 0,0 l/m 0,2 km/h (0 Bft) O -0,1 C 1,8 C 2,4 km/h (1 Bft)
29.11.2008 20:00 1,8 C 88 % 1002,1 hPa 0,0 l/m 0,7 km/h (0 Bft) N 0,0 C 1,8 C 3,2 km/h (1 Bft)
29.11.2008 21:00 1,5 C 87 % 1002,5 hPa 0,0 l/m 0,0 km/h (0 Bft) N -0,4 C 1,5 C 0,4 km/h (0 Bft)
29.11.2008 22:00 0,6 C 87 % 1002,7 hPa 0,0 l/m 0,1 km/h (0 Bft) N -1,2 C 0,6 C 1,2 km/h (1 Bft)
29.11.2008 23:00 -0,7 C 87 % 1002,7 hPa 0,0 l/m 0,0 km/h (0 Bft) N -2,5 C -0,7 C 0,8 km/h (0 Bft)
30.11.2008 00:00 -0,6 C 90 % 1002,3 hPa 0,0 l/m 0,1 km/h (0 Bft) N -2,1 C -0,6 C 1,6 km/h (1 Bft)
30.11.2008 01:00 0,1 C 90 % 1001,9 hPa 0,0 l/m 0,0 km/h (0 Bft) N -1,4 C 0,1 C 0,8 km/h (0 Bft)
30.11.2008 02:00 0,2 C 91 % 1001,9 hPa 0,0 l/m 0,2 km/h (0 Bft) N -1,2 C 0,2 C 2,4 km/h (1 Bft)
30.11.2008 03:00 -0,6 C 91 % 1001,7 hPa 0,0 l/m 1,1 km/h (1 Bft) O -1,8 C -0,6 C 4,4 km/h (1 Bft)
30.11.2008 04:00 1,7 C 93 % 1001,0 hPa 0,0 l/m 1,3 km/h (1 Bft) O-SO 0,6 C 1,7 C 7,6 km/h (2 Bft)
30.11.2008 05:00 4,0 C 90 % 1001,4 hPa 0,0 l/m 2,4 km/h (1 Bft) SO 2,5 C 4,0 C 8,9 km/h (2 Bft)
30.11.2008 06:00 3,5 C 87 % 1002,0 hPa 0,0 l/m 2,9 km/h (1 Bft) S-SW 1,5 C 3,5 C 11,3 km/h (2 Bft)
30.11.2008 07:00 3,3 C 88 % 1002,5 hPa 0,0 l/m 1,7 km/h (1 Bft) O 1,5 C 3,3 C 8,4 km/h (2 Bft)
30.11.2008 08:00 3,6 C 89 % 1002,6 hPa 0,0 l/m 1,2 km/h (1 Bft) SO 2,0 C 3,6 C 6,4 km/h (2 Bft)
30.11.2008 09:00 4,6 C 88 % 1002,7 hPa 0,0 l/m 2,4 km/h (1 Bft) O 2,8 C 4,6 C 8,1 km/h (2 Bft)
30.11.2008 10:00 5,9 C 85 % 1002,3 hPa 0,0 l/m 2,1 km/h (1 Bft) O-SO 3,6 C 5,9 C 10,1 km/h (2 Bft)
30.11.2008 11:00 7,4 C 82 % 1001,3 hPa 0,0 l/m 1,4 km/h (1 Bft) S 4,5 C 7,4 C 8,4 km/h (2 Bft)
30.11.2008 12:00 10,1 C 72 % 1000,5 hPa 0,0 l/m 3,9 km/h (1 Bft) S 5,3 C 10,1 C 14,1 km/h (3 Bft)
30.11.2008 13:00 10,5 C 68 % 1000,5 hPa 0,0 l/m 5,5 km/h (1 Bft) S-SW 4,8 C 10,4 C 18,1 km/h (3 Bft)
30.11.2008 14:00 9,7 C 70 % 1001,5 hPa 0,0 l/m 1,7 km/h (1 Bft) S-SW 4,5 C 9,7 C 8,9 km/h (2 Bft)
30.11.2008 15:00 9,4 C 70 % 1001,8 hPa 0,0 l/m 2,3 km/h (1 Bft) S-SO 4,2 C 9,4 C 10,4 km/h (2 Bft)
30.11.2008 16:00 8,9 C 72 % 1002,1 hPa 0,0 l/m 2,3 km/h (1 Bft) O-NO 4,2 C 8,9 C 12,4 km/h (3 Bft)
30.11.2008 17:00 8,1 C 79 % 1002,0 hPa 0,0 l/m 3,9 km/h (1 Bft) SO 4,5 C 8,1 C 10,9 km/h (2 Bft)
30.11.2008 18:00 8,1 C 79 % 1002,5 hPa 0,0 l/m 1,9 km/h (1 Bft) S-SO 4,6 C 8,1 C 7,6 km/h (2 Bft)
30.11.2008 19:00 7,6 C 77 % 1002,9 hPa 0,0 l/m 1,0 km/h (0 Bft) S 3,7 C 7,6 C 7,3 km/h (2 Bft)
30.11.2008 20:00 6,5 C 78 % 1003,3 hPa 0,0 l/m 1,8 km/h (1 Bft) S-SO 2,9 C 6,5 C 7,2 km/h (2 Bft)
30.11.2008 21:00 5,9 C 78 % 1003,6 hPa 0,0 l/m 3,2 km/h (1 Bft) O 2,4 C 5,9 C 11,7 km/h (2 Bft)
30.11.2008 22:00 6,7 C 75 % 1004,5 hPa 0,0 l/m 5,6 km/h (1 Bft) S-SO 2,5 C 6,2 C 17,7 km/h (3 Bft)
30.11.2008 23:00 5,7 C 78 % 1004,9 hPa 0,0 l/m 3,0 km/h (1 Bft) S-SO 2,1 C 5,7 C 6,4 km/h (2 Bft)
Min-Datum _ 24.11.08 27.11.08 24.11.08 - 24.11.08 - 24.11.08 24.11.08 24.11.08
_ Min-Zeit 04:15 10:30 04:15 - 00:00 - 01:15 04:00 00:00
Minimum _ -5,5 C 54 % 993,2 hPa - 0,0 km/h (0 Bft) - -8,0 C -5,5 C 0,0 km/h (0 Bft)
Max-Datum _ 30.11.08 25.11.08 26.11.08 25.11.08 26.11.08 - 30.11.08 30.11.08 26.11.08
_ Max-Zeit 12:45 11:30 20:30 10:00 13:00 - 12:15 13:00 15:00
Maximum _ 10,8 C 94 % 1026,0 hPa 1,2 l/m 11,3 km/h
W (2 Bft)
- 5,5 C 10,6 C 33,8 km/h
W-SW (5 Bft)
Durchschnitt _ 1,9 C 77 % 1010,0 hPa #2,7 l/m 3,2 km/h (1 Bft) SO -1,8 C 1,6 C 10,4 km/h (2 Bft)